Airfield :
LOGIN :

Register | Disclaimer

   EN    FR    IT 

 










Legend :    VFR   Marginal VFR   IFR   Intensive IFR   Very Intensive IFR
Visi :
Ceiling :
>= 8 km
>= 3000ft
5 to 8 km
1000 to 3000 ft
1500m to 5 km
500 to 1000 ft
800 to 1500m
200 to 500 ft
< 800m
< 200 ft
Symbols :   Thunderstorms  Fog  Heavy snow  Heavy precipitations  Wind > 20 kt
SIGMETs :     Misc.  Thunderstorms  Icing  Turbulence  Mountain Waves  Volcanic Ashes






- Airport Elevation : 1906 ft
- IATA code : INN


LOWI - Innsbruck

CURRENT METAR :
  • 031820Z 05010KT 9999 BKN070 11/M01 Q1016 NOSIG

EXPIRED METARs :
  • 031750Z 04013KT 9999 BKN080 11/M01 Q1015 NOSIG
  • 031720Z 05012KT 9999 SCT080 12/M02 Q1015 NOSIG
  • 031650Z 07013KT 040V100 9999 SCT080 13/M02 Q1014 NOSIG
  • 031620Z 05010KT 9999 SCT080 13/M02 Q1014 NOSIG
  • 031550Z 08010KT 060V120 9999 SCT080 13/M03 Q1013 NOSIG

TAF TAF LOWI
Valid from the 03 at 18:00 until the 04 at 18:00 UTC


031715Z 0318/0418 09010KT 9999 SCT070 TX16/0415Z TN02/0404Z
TEMPO 0320/0409 VRB02KT CAVOK



MET'MAP, your aeronautical weather chart ! - Copyright ORBIFLY December 2007 - Disclaimer

ORBIFLY MET'MAP TEAM :

Programming & Development : Alexandra Zaïnal
Concept & original design : Baudouin d'Aumeries
Assistance for programming : Marc-Olivier Méhu
Technical & hardware support : Manuel Goepfert

Contact : metmap@orbifly.com




SOURCES & CREDITS :

   NOAA